KRSW/RSW METAR and TAF weather

Enter ICAO airport designator
Station Type Date Time Source
KRSW METAR 2020/07/14 04:53 UTC NOAA

KRSW 140453Z AUTO 24003KT 10SM CLR 28/25 A3001 RMK AO2 SLP160 T02780250 403440250


Station Type Date Time Source
KRSW Decoded METAR 2020/07/14 04:53 UTC NOAA

FORT MYERS SW FL INTERNATIONAL AIRPORT , FL, United States (KRSW) 26-32N 081-46W 9M
Jul 14, 2020 - 12:53 AM EDT / 2020.07.14 0453 UTC
Wind: from the WSW (240 degrees) at 3 MPH (3 KT):0
Visibility: 10 mile(s):0
Sky conditions: clear
Temperature: 82.0 F (27.8 C)
Dew Point: 77.0 F (25.0 C)
Relative Humidity: 84%
Pressure (altimeter): 30.01 in. Hg (1016 hPa)
ob: KRSW 140453Z AUTO 24003KT 10SM CLR 28/25 A3001 RMK AO2 SLP160 T02780250 403440250
cycle: 5

Station Type Date Time Source
KRSW TAF 2020/07/14 06:22 UTC NOAA

TAF KRSW 140520Z 1406/1506 VRB04KT P6SM SCT025 SCT250
FM141500 28006KT P6SM VCSH SCT035 BKN250
FM141800 26008KT P6SM VCTS SCT050CB BKN250
FM150000 VRB04KT P6SM SCT035 SCT250

Example: see airport list